Time;durP1;ratioP1;P1;durP2;ratioP2;P2;SDS_P1;SDS_P2;PMS_P1;PMS_P2;Temp;Humidity;BMP_temperature;BMP_pressure;BME280_temperature;BME280_humidity;BME280_pressure;Samples;Min_cycle;Max_cycle;Signal;HPM_P1;HPM_P2
2023/07/28 00:00:11;;;;;;;39.53;17.05;;;19.00;99.90;;;;;;4939131;29;20179;-91
2023/07/28 00:02:40;;;;;;;35.63;17.30;;;19.10;99.90;;;;;;4938945;29;20226;-91
2023/07/28 00:05:06;;;;;;;37.22;16.90;;;19.00;99.90;;;;;;4930270;29;20191;-89
2023/07/28 00:07:35;;;;;;;39.90;17.02;;;19.00;99.90;;;;;;4934792;29;20192;-90
2023/07/28 00:10:01;;;;;;;49.60;18.50;;;19.10;99.90;;;;;;4932087;29;20196;-91
2023/07/28 00:12:27;;;;;;;39.35;17.92;;;19.10;99.90;;;;;;4939134;29;20239;-91
2023/07/28 00:14:52;;;;;;;39.08;17.40;;;19.10;99.90;;;;;;4918480;29;20649;-90
2023/07/28 00:17:18;;;;;;;38.13;17.85;;;19.10;99.90;;;;;;4931618;29;20223;-89
2023/07/28 00:19:44;;;;;;;45.38;18.02;;;19.10;99.90;;;;;;4915040;29;20267;-91
2023/07/28 00:22:10;;;;;;;42.70;19.10;;;19.10;99.90;;;;;;4931447;29;20238;-91
2023/07/28 00:24:35;;;;;;;45.05;19.20;;;19.10;99.90;;;;;;4907555;29;20235;-90
2023/07/28 00:27:01;;;;;;;43.63;21.15;;;19.10;99.90;;;;;;4928270;29;20196;-92
2023/07/28 00:29:27;;;;;;;41.10;20.40;;;19.10;99.90;;;;;;4904492;29;20194;-91
2023/07/28 00:31:54;;;;;;;41.55;20.23;;;19.10;99.90;;;;;;4907673;29;20191;-91
2023/07/28 00:34:20;;;;;;;42.40;20.42;;;19.10;99.90;;;;;;4921520;29;20214;-90
2023/07/28 00:36:46;;;;;;;43.70;19.95;;;19.00;99.90;;;;;;4923797;29;20207;-89
2023/07/28 00:39:13;;;;;;;37.78;19.13;;;19.10;99.90;;;;;;4908236;29;20200;-90
2023/07/28 00:41:39;;;;;;;39.80;19.65;;;19.10;99.90;;;;;;4930414;29;20191;-91
2023/07/28 00:44:05;;;;;;;41.15;19.15;;;19.10;99.90;;;;;;4940440;29;20240;-89
2023/07/28 00:46:31;;;;;;;39.90;19.75;;;19.10;99.90;;;;;;4930985;29;20195;-89
2023/07/28 00:48:57;;;;;;;44.10;18.95;;;19.10;99.90;;;;;;4914450;29;20195;-90
2023/07/28 00:51:23;;;;;;;46.60;18.52;;;19.10;99.90;;;;;;4938500;29;20188;-91
2023/07/28 00:53:49;;;;;;;39.00;18.92;;;19.10;99.90;;;;;;4921331;29;20234;-89
2023/07/28 00:56:19;;;;;;;47.53;19.92;;;19.10;99.90;;;;;;4940495;29;20215;-88
2023/07/28 00:58:45;;;;;;;36.55;18.77;;;19.10;99.90;;;;;;4919266;29;20206;-88
2023/07/28 01:01:11;;;;;;;41.40;19.90;;;19.10;99.90;;;;;;4919165;29;20223;-87
2023/07/28 01:03:37;;;;;;;34.47;18.50;;;19.00;99.90;;;;;;4939197;28;20187;-88
2023/07/28 01:06:06;;;;;;;47.10;18.83;;;19.00;99.90;;;;;;4929040;29;20683;-89
2023/07/28 01:08:49;;;;;;;44.00;19.80;;;19.10;99.90;;;;;;4926120;29;20192;-89
2023/07/28 01:11:15;;;;;;;43.85;19.25;;;19.10;99.90;;;;;;4916192;29;20246;-89
2023/07/28 01:13:41;;;;;;;43.70;20.23;;;19.10;99.90;;;;;;4879396;29;20184;-89
2023/07/28 01:16:08;;;;;;;48.15;19.23;;;19.10;99.90;;;;;;4921144;29;20215;-89
2023/07/28 01:18:34;;;;;;;42.30;19.08;;;19.00;99.90;;;;;;4927029;29;20191;-89
2023/07/28 01:21:05;;;;;;;40.30;19.83;;;19.10;99.90;;;;;;4930105;29;20192;-89
2023/07/28 01:23:52;;;;;;;45.80;20.33;;;19.10;99.90;;;;;;4916768;29;20180;-89
2023/07/28 01:26:31;;;;;;;41.30;19.67;;;19.10;99.90;;;;;;4930665;29;20176;-88
2023/07/28 01:28:59;;;;;;;41.47;20.60;;;19.10;99.90;;;;;;4926509;29;20270;-89
2023/07/28 01:31:25;;;;;;;41.10;20.88;;;19.10;99.90;;;;;;4930875;29;20195;-90
2023/07/28 01:33:51;;;;;;;53.88;21.85;;;19.00;99.90;;;;;;4930764;29;20441;-88
2023/07/28 01:36:17;;;;;;;45.10;22.27;;;19.00;99.90;;;;;;4923416;29;20218;-89
2023/07/28 01:38:42;;;;;;;49.22;23.05;;;19.10;99.90;;;;;;4926322;29;20192;-87
2023/07/28 01:41:08;;;;;;;46.78;22.42;;;19.00;99.90;;;;;;4910148;29;20191;-88
2023/07/28 01:43:34;;;;;;;50.22;21.95;;;19.00;99.90;;;;;;4926967;29;20184;-90
2023/07/28 01:46:00;;;;;;;57.88;23.48;;;19.00;99.90;;;;;;4897960;29;20246;-90
2023/07/28 01:48:26;;;;;;;44.70;21.08;;;19.10;99.90;;;;;;4920549;29;20183;-91
2023/07/28 01:50:52;;;;;;;46.95;20.38;;;19.10;99.90;;;;;;4921580;29;20223;-90
2023/07/28 01:53:18;;;;;;;45.17;19.95;;;19.10;99.90;;;;;;4915387;29;20637;-90
2023/07/28 01:55:43;;;;;;;40.10;20.70;;;19.10;99.90;;;;;;4898615;29;20545;-89
2023/07/28 01:58:09;;;;;;;48.10;21.25;;;19.10;99.90;;;;;;4917144;29;20224;-88
2023/07/28 02:00:35;;;;;;;41.28;20.40;;;19.10;99.90;;;;;;4912280;29;20668;-90
2023/07/28 02:03:03;;;;;;;42.20;20.52;;;19.10;99.90;;;;;;4917233;29;20291;-90
2023/07/28 02:05:29;;;;;;;40.03;18.98;;;19.10;99.90;;;;;;4917995;29;20199;-89
2023/07/28 02:07:56;;;;;;;44.63;18.70;;;19.10;99.90;;;;;;4917879;29;20203;-89
2023/07/28 02:10:23;;;;;;;36.17;16.85;;;19.10;99.90;;;;;;4908558;29;20523;-88
2023/07/28 02:12:53;;;;;;;30.45;15.98;;;19.10;99.90;;;;;;4919270;29;20508;-90
2023/07/28 02:15:19;;;;;;;27.88;15.77;;;19.10;99.90;;;;;;4884460;29;20189;-90
2023/07/28 02:17:44;;;;;;;29.83;15.88;;;19.10;99.90;;;;;;4933513;29;20221;-90
2023/07/28 02:20:12;;;;;;;35.72;16.40;;;19.10;99.90;;;;;;4931472;29;20219;-90
2023/07/28 02:22:42;;;;;;;33.10;17.15;;;19.10;99.90;;;;;;4913284;29;20357;-89
2023/07/28 02:25:09;;;;;;;27.50;16.83;;;19.10;99.90;;;;;;4945609;29;20195;-90
2023/07/28 02:27:36;;;;;;;28.02;16.08;;;19.10;99.90;;;;;;4937866;29;20187;-90
2023/07/28 02:30:03;;;;;;;30.52;16.13;;;19.00;99.90;;;;;;4919512;29;20191;-90
2023/07/28 02:32:29;;;;;;;30.85;15.88;;;19.10;99.90;;;;;;4920059;29;20218;-90
2023/07/28 02:34:56;;;;;;;34.95;17.48;;;19.10;99.90;;;;;;4911603;29;20186;-89
2023/07/28 02:37:22;;;;;;;35.83;18.33;;;19.00;99.90;;;;;;4901160;29;20223;-88
2023/07/28 02:39:47;;;;;;;38.50;19.35;;;19.00;99.90;;;;;;4934854;29;20199;-89
2023/07/28 02:42:14;;;;;;;37.70;20.30;;;19.00;99.90;;;;;;4920219;29;20189;-88
2023/07/28 02:44:40;;;;;;;39.28;20.02;;;19.10;99.90;;;;;;4935083;29;20238;-88
2023/07/28 02:47:06;;;;;;;50.70;21.05;;;19.10;99.90;;;;;;4904052;29;20246;-87
2023/07/28 02:49:34;;;;;;;44.47;21.70;;;19.10;99.90;;;;;;4908897;29;20196;-88
2023/07/28 02:52:00;;;;;;;48.50;21.35;;;19.00;99.90;;;;;;4936213;29;20201;-88
2023/07/28 02:54:26;;;;;;;45.30;21.25;;;19.00;99.90;;;;;;4909428;29;20584;-88
2023/07/28 02:56:52;;;;;;;48.80;22.15;;;19.10;99.90;;;;;;4897378;29;20262;-88
2023/07/28 02:59:18;;;;;;;43.08;22.65;;;19.10;99.90;;;;;;4929742;29;20720;-88
2023/07/28 03:01:44;;;;;;;54.35;22.23;;;19.10;99.90;;;;;;4901578;29;20227;-88
2023/07/28 03:04:10;;;;;;;55.67;21.83;;;19.10;99.90;;;;;;4926830;29;20216;-87
2023/07/28 03:06:59;;;;;;;49.65;22.95;;;19.10;99.90;;;;;;4932057;29;20191;-85
2023/07/28 03:09:25;;;;;;;47.28;21.60;;;19.00;99.90;;;;;;4902678;29;20237;-87
2023/07/28 03:11:58;;;;;;;48.55;21.85;;;19.00;99.90;;;;;;4934866;29;20290;-87
2023/07/28 03:14:24;;;;;;;53.45;22.40;;;19.00;99.90;;;;;;4927122;29;20703;-85
2023/07/28 03:16:49;;;;;;;48.53;21.70;;;19.00;99.90;;;;;;4904120;29;20299;-85
2023/07/28 03:19:17;;;;;;;54.05;21.58;;;19.00;99.90;;;;;;4926608;29;20194;-86
2023/07/28 03:21:43;;;;;;;44.45;21.08;;;19.00;99.90;;;;;;4915763;29;20175;-86
2023/07/28 03:24:08;;;;;;;50.55;20.88;;;19.00;99.90;;;;;;4911448;29;20251;-86
2023/07/28 03:26:34;;;;;;;47.70;19.95;;;19.10;99.90;;;;;;4928451;29;20533;-87
2023/07/28 03:29:00;;;;;;;50.92;19.38;;;19.10;99.90;;;;;;4925396;29;20274;-88
2023/07/28 03:31:26;;;;;;;43.72;18.88;;;19.10;99.90;;;;;;4921982;29;20191;-87
2023/07/28 03:33:52;;;;;;;53.88;18.83;;;19.00;99.90;;;;;;4927246;29;20223;-87
2023/07/28 03:36:19;;;;;;;40.10;18.52;;;19.10;99.90;;;;;;4932499;29;20281;-90
2023/07/28 03:38:48;;;;;;;43.70;17.88;;;19.00;99.90;;;;;;4920047;29;20198;-91
2023/07/28 03:41:14;;;;;;;38.70;17.35;;;19.00;99.90;;;;;;4933515;29;20187;-90
2023/07/28 03:43:41;;;;;;;36.58;16.58;;;19.10;99.90;;;;;;4947095;28;20191;-89
2023/07/28 03:46:07;;;;;;;40.15;16.50;;;19.00;99.90;;;;;;4924938;28;20262;-91
2023/07/28 03:48:33;;;;;;;49.70;16.77;;;19.00;99.90;;;;;;4895146;29;20212;-89
2023/07/28 03:50:59;;;;;;;39.65;16.77;;;19.00;99.90;;;;;;4934079;29;20243;-88
2023/07/28 03:53:24;;;;;;;34.53;15.38;;;19.00;99.90;;;;;;4915308;29;20224;-89
2023/07/28 03:55:51;;;;;;;42.83;14.98;;;19.10;99.90;;;;;;4929185;29;20219;-91
2023/07/28 03:58:17;;;;;;;39.50;15.50;;;19.10;99.90;;;;;;4908375;29;20240;-89
2023/07/28 04:00:43;;;;;;;40.80;14.45;;;19.10;99.90;;;;;;4934817;29;20880;-90
2023/07/28 04:03:09;;;;;;;33.25;14.15;;;19.00;99.90;;;;;;4917521;29;20684;-91
2023/07/28 04:05:36;;;;;;;39.45;14.10;;;19.10;99.90;;;;;;4932910;29;20626;-91
2023/07/28 04:08:02;;;;;;;35.85;13.27;;;19.00;99.90;;;;;;4925131;29;20656;-91
2023/07/28 04:10:28;;;;;;;29.00;13.50;;;19.10;99.90;;;;;;4934927;29;20214;-92
2023/07/28 04:12:54;;;;;;;36.38;13.15;;;19.10;99.90;;;;;;4919237;29;20191;-91
2023/07/28 04:15:20;;;;;;;35.22;12.98;;;19.00;99.90;;;;;;4896169;29;20652;-91
2023/07/28 04:17:46;;;;;;;29.35;12.80;;;19.00;99.90;;;;;;4936065;29;20215;-89
2023/07/28 04:20:12;;;;;;;35.35;12.75;;;19.00;99.90;;;;;;4935676;29;20663;-90
2023/07/28 04:22:38;;;;;;;37.33;13.45;;;19.10;99.90;;;;;;4907241;29;20303;-91
2023/07/28 04:25:04;;;;;;;34.88;12.70;;;19.00;99.90;;;;;;4938507;29;20601;-91
2023/07/28 04:27:31;;;;;;;35.72;12.77;;;19.10;99.90;;;;;;4898141;29;20187;-91
2023/07/28 04:30:00;;;;;;;37.67;12.63;;;19.10;99.90;;;;;;4935662;29;20191;-89
2023/07/28 04:32:26;;;;;;;31.52;12.05;;;19.10;99.90;;;;;;4906183;29;20222;-92
2023/07/28 04:34:53;;;;;;;25.17;12.07;;;19.10;99.90;;;;;;4918748;29;20191;-90
2023/07/28 04:37:42;;;;;;;34.47;11.35;;;19.10;99.90;;;;;;4939398;29;20322;-91
2023/07/28 04:40:09;;;;;;;35.63;12.20;;;19.10;99.90;;;;;;4925897;29;20684;-91
2023/07/28 04:42:37;;;;;;;38.78;11.88;;;19.10;99.90;;;;;;4951999;29;20206;-90
2023/07/28 04:45:05;;;;;;;31.13;11.75;;;19.10;99.90;;;;;;4934155;29;20191;-91
2023/07/28 04:47:31;;;;;;;25.67;12.18;;;19.10;99.90;;;;;;4932148;29;20198;-91
2023/07/28 04:49:58;;;;;;;32.85;12.57;;;19.10;99.90;;;;;;4926662;29;20660;-90
2023/07/28 04:52:42;;;;;;;24.08;12.10;;;19.10;99.90;;;;;;4925652;29;20202;-89
2023/07/28 04:55:31;;;;;;;26.27;11.98;;;19.10;99.90;;;;;;4918034;29;20248;-84
2023/07/28 04:57:56;;;;;;;24.40;12.98;;;19.10;99.90;;;;;;4931077;29;20227;-88
2023/07/28 05:00:25;;;;;;;32.15;12.73;;;19.10;99.90;;;;;;4931137;29;20326;-85
2023/07/28 05:02:51;;;;;;;24.60;12.15;;;19.10;99.90;;;;;;4936624;29;20739;-86
2023/07/28 05:05:17;;;;;;;28.85;11.98;;;19.10;99.90;;;;;;4952755;28;20282;-87
2023/07/28 05:07:44;;;;;;;22.17;11.38;;;19.10;99.90;;;;;;4920061;29;20220;-86
2023/07/28 05:10:14;;;;;;;21.73;11.57;;;19.10;99.90;;;;;;4896729;29;20184;-86
2023/07/28 05:12:39;;;;;;;29.90;12.18;;;19.10;99.90;;;;;;4933436;29;20203;-86
2023/07/28 05:15:10;;;;;;;27.75;12.20;;;19.10;99.90;;;;;;4915813;29;20274;-85
2023/07/28 05:17:38;;;;;;;24.55;10.95;;;19.10;99.90;;;;;;4918752;29;20199;-86
2023/07/28 05:20:34;;;;;;;24.98;10.63;;;19.10;99.90;;;;;;4917515;29;20645;-87
2023/07/28 05:23:15;;;;;;;22.75;11.00;;;19.10;99.90;;;;;;4920187;29;20679;-85
2023/07/28 05:25:42;;;;;;;19.33;10.95;;;19.10;99.90;;;;;;4929001;29;20195;-84
2023/07/28 05:28:08;;;;;;;21.05;10.45;;;19.10;99.90;;;;;;4918457;29;20184;-84
2023/07/28 05:30:37;;;;;;;18.15;9.98;;;19.10;99.90;;;;;;4914900;29;20207;-85
2023/07/28 05:33:03;;;;;;;22.00;9.80;;;19.10;99.90;;;;;;4935065;29;20191;-85
2023/07/28 05:35:39;;;;;;;17.75;10.23;;;19.10;99.90;;;;;;4925706;29;20564;-85
2023/07/28 05:38:06;;;;;;;18.25;10.27;;;19.10;99.90;;;;;;4900369;29;20180;-85
2023/07/28 05:40:31;;;;;;;23.80;10.43;;;19.10;99.90;;;;;;4909018;29;20199;-86
2023/07/28 05:42:57;;;;;;;19.40;10.85;;;19.10;99.90;;;;;;4919749;29;20195;-86
2023/07/28 05:45:23;;;;;;;23.42;10.18;;;19.10;99.90;;;;;;4927756;29;20206;-87
2023/07/28 05:47:49;;;;;;;22.15;10.93;;;19.20;99.90;;;;;;4924188;29;20194;-86
2023/07/28 05:50:15;;;;;;;18.52;10.27;;;19.10;99.90;;;;;;4928208;29;20283;-86
2023/07/28 05:52:40;;;;;;;21.63;10.88;;;19.20;99.90;;;;;;4935296;29;20183;-85
2023/07/28 05:55:06;;;;;;;17.70;10.55;;;19.20;99.90;;;;;;4916939;29;20196;-85
2023/07/28 05:57:32;;;;;;;20.48;10.65;;;19.20;99.90;;;;;;4934753;29;20238;-85
2023/07/28 06:00:01;;;;;;;19.65;10.68;;;19.20;99.90;;;;;;4923077;29;20192;-85
2023/07/28 06:02:27;;;;;;;23.75;10.60;;;19.20;99.90;;;;;;4916039;29;20582;-84
2023/07/28 06:04:55;;;;;;;19.73;10.98;;;19.20;99.90;;;;;;4927410;29;20735;-85
2023/07/28 06:07:21;;;;;;;22.33;10.48;;;19.20;99.90;;;;;;4899208;29;20195;-85
2023/07/28 06:09:47;;;;;;;16.88;10.45;;;19.30;99.90;;;;;;4896688;29;20227;-84
2023/07/28 06:12:15;;;;;;;19.27;10.60;;;19.30;99.90;;;;;;4946147;28;20227;-84
2023/07/28 06:14:42;;;;;;;19.10;10.52;;;19.30;99.90;;;;;;4934653;29;20183;-84
2023/07/28 06:17:09;;;;;;;17.08;10.10;;;19.30;99.90;;;;;;4928249;29;20215;-85
2023/07/28 06:19:36;;;;;;;20.38;10.80;;;19.30;99.90;;;;;;4908428;29;20680;-85
2023/07/28 06:22:02;;;;;;;21.77;10.73;;;19.30;99.90;;;;;;4924539;29;20283;-85
2023/07/28 06:24:30;;;;;;;23.63;10.45;;;19.30;99.90;;;;;;4944371;28;20250;-85
2023/07/28 06:26:59;;;;;;;19.80;11.32;;;19.30;99.90;;;;;;4949408;29;20223;-86
2023/07/28 06:29:25;;;;;;;19.85;10.23;;;19.40;99.90;;;;;;4934320;29;20242;-85
2023/07/28 06:31:50;;;;;;;19.80;10.73;;;19.30;99.90;;;;;;4918829;29;20207;-86
2023/07/28 06:34:16;;;;;;;17.67;10.48;;;19.40;99.90;;;;;;4930701;29;20278;-86
2023/07/28 06:36:42;;;;;;;16.83;11.07;;;19.40;99.90;;;;;;4930940;29;20699;-85
2023/07/28 06:39:08;;;;;;;12.25;9.85;;;19.40;99.90;;;;;;4926491;29;20251;-86
2023/07/28 06:41:34;;;;;;;18.67;10.75;;;19.40;99.90;;;;;;4936296;29;20207;-86
2023/07/28 06:44:01;;;;;;;13.85;10.45;;;19.50;99.90;;;;;;4932231;29;20727;-86
2023/07/28 06:46:28;;;;;;;15.95;10.63;;;19.50;99.90;;;;;;4936877;29;20223;-88
2023/07/28 06:48:54;;;;;;;17.60;10.48;;;19.60;99.90;;;;;;4915770;29;20192;-87
2023/07/28 06:51:20;;;;;;;15.52;10.85;;;19.60;99.90;;;;;;4908117;29;20229;-84
2023/07/28 06:53:46;;;;;;;14.95;10.82;;;19.60;99.90;;;;;;4928964;29;20196;-85
2023/07/28 06:56:11;;;;;;;18.40;10.85;;;19.60;99.90;;;;;;4929023;29;20690;-84
2023/07/28 06:58:37;;;;;;;14.48;10.82;;;19.70;99.90;;;;;;4925683;29;20499;-83
2023/07/28 07:01:03;;;;;;;20.33;10.95;;;19.70;99.90;;;;;;4915626;29;20184;-85
2023/07/28 07:03:29;;;;;;;11.60;9.82;;;19.70;99.90;;;;;;4930178;29;20220;-85
2023/07/28 07:05:55;;;;;;;14.18;10.40;;;19.70;99.90;;;;;;4909550;29;20219;-85
2023/07/28 07:08:21;;;;;;;11.98;10.07;;;19.70;99.90;;;;;;4923456;29;20196;-85
2023/07/28 07:10:50;;;;;;;11.63;9.30;;;19.80;99.90;;;;;;4925332;29;20230;-85
2023/07/28 07:13:16;;;;;;;11.73;9.25;;;19.80;99.90;;;;;;4932644;29;20195;-84
2023/07/28 07:15:42;;;;;;;11.65;9.52;;;19.90;99.90;;;;;;4933820;29;20223;-86
2023/07/28 07:18:08;;;;;;;10.15;9.00;;;19.90;99.90;;;;;;4893901;29;20215;-86
2023/07/28 07:20:35;;;;;;;12.07;8.80;;;20.00;99.90;;;;;;4929225;29;20241;-85
2023/07/28 07:23:01;;;;;;;11.50;8.43;;;20.00;99.90;;;;;;4933837;29;20655;-83
2023/07/28 07:25:27;;;;;;;12.27;8.05;;;20.00;99.90;;;;;;4918564;29;20222;-85
2023/07/28 07:27:53;;;;;;;14.25;8.52;;;20.00;99.90;;;;;;4927562;29;20219;-84
2023/07/28 07:30:19;;;;;;;10.25;8.07;;;20.00;99.90;;;;;;4920789;29;20246;-84
2023/07/28 07:32:45;;;;;;;10.02;8.30;;;20.10;99.90;;;;;;4949502;28;20187;-85
2023/07/28 07:35:11;;;;;;;10.88;7.85;;;20.10;99.90;;;;;;4918664;29;20199;-87
2023/07/28 07:37:37;;;;;;;12.10;7.75;;;20.10;99.90;;;;;;4944417;28;20255;-86
2023/07/28 07:40:03;;;;;;;10.35;7.88;;;20.10;99.90;;;;;;4917850;29;20191;-85
2023/07/28 07:42:44;;;;;;;9.70;7.53;;;20.20;99.90;;;;;;4918180;29;20183;-85
2023/07/28 07:45:13;;;;;;;9.20;7.70;;;20.20;99.90;;;;;;4929023;29;20255;-86
2023/07/28 07:47:41;;;;;;;10.68;7.38;;;20.20;99.90;;;;;;4923246;29;20187;-85
2023/07/28 07:50:11;;;;;;;9.27;8.07;;;20.20;99.90;;;;;;4935778;29;20211;-85
2023/07/28 07:52:37;;;;;;;10.90;7.55;;;20.10;99.90;;;;;;4935315;29;20195;-84
2023/07/28 07:55:04;;;;;;;8.65;7.55;;;20.10;99.90;;;;;;4933624;29;20195;-85
2023/07/28 07:57:30;;;;;;;10.32;8.20;;;20.10;99.90;;;;;;4933885;29;20219;-88
2023/07/28 07:59:59;;;;;;;9.50;7.63;;;20.20;99.90;;;;;;4915080;29;20554;-84
2023/07/28 08:02:25;;;;;;;9.85;7.88;;;20.10;99.90;;;;;;4941094;29;20219;-84
2023/07/28 08:04:53;;;;;;;9.02;8.05;;;20.20;99.90;;;;;;4921888;29;20660;-85
2023/07/28 08:07:23;;;;;;;10.10;8.32;;;20.20;99.90;;;;;;4934604;29;20203;-87
2023/07/28 08:09:49;;;;;;;11.50;8.50;;;20.20;99.90;;;;;;4930196;29;20268;-86
2023/07/28 08:12:15;;;;;;;10.88;7.65;;;20.30;99.90;;;;;;4926276;29;20204;-85
2023/07/28 08:14:41;;;;;;;11.00;8.25;;;20.30;99.90;;;;;;4930620;29;20632;-87
2023/07/28 08:17:08;;;;;;;13.18;7.93;;;20.30;99.90;;;;;;4931052;29;20258;-86
2023/07/28 08:19:34;;;;;;;9.52;7.90;;;20.40;99.90;;;;;;4936341;29;20193;-91
2023/07/28 08:22:03;;;;;;;10.40;8.10;;;20.50;99.90;;;;;;4929525;29;20195;-87
2023/07/28 08:24:29;;;;;;;11.82;8.27;;;20.50;99.90;;;;;;4953436;29;20270;-87
2023/07/28 08:26:55;;;;;;;11.65;8.35;;;20.60;99.90;;;;;;4927551;29;20183;-87
2023/07/28 08:29:21;;;;;;;12.25;8.23;;;20.70;99.90;;;;;;4936503;29;20187;-88
2023/07/28 08:31:47;;;;;;;9.18;7.05;;;20.70;99.90;;;;;;4922656;29;20191;-88
2023/07/28 08:34:13;;;;;;;10.10;7.50;;;20.60;99.90;;;;;;4954589;29;20183;-89
2023/07/28 08:36:38;;;;;;;8.85;7.40;;;20.70;99.90;;;;;;4926292;29;20670;-89
2023/07/28 08:39:05;;;;;;;9.23;7.93;;;20.70;99.90;;;;;;4927637;29;20196;-87
2023/07/28 08:41:31;;;;;;;9.20;7.82;;;20.80;99.90;;;;;;4931389;29;20219;-88
2023/07/28 08:43:57;;;;;;;9.30;7.63;;;20.80;99.90;;;;;;4928331;29;20194;-88
2023/07/28 08:46:23;;;;;;;9.77;7.25;;;20.90;99.90;;;;;;4952613;29;20203;-88
2023/07/28 08:48:49;;;;;;;12.40;7.22;;;20.90;99.90;;;;;;4934149;29;20196;-88
2023/07/28 08:51:18;;;;;;;11.35;6.70;;;20.90;99.90;;;;;;4938036;29;20395;-88
2023/07/28 08:53:44;;;;;;;7.72;6.85;;;20.90;99.90;;;;;;4953546;29;20223;-88
2023/07/28 08:56:10;;;;;;;9.57;6.95;;;20.90;99.90;;;;;;4937596;29;20215;-88
2023/07/28 08:58:36;;;;;;;8.50;7.03;;;20.90;99.90;;;;;;4937872;29;20533;-88
2023/07/28 09:01:02;;;;;;;7.15;5.65;;;20.90;99.90;;;;;;4914244;29;20195;-88
2023/07/28 09:03:29;;;;;;;6.43;5.68;;;20.90;99.90;;;;;;4918686;29;20185;-89
2023/07/28 09:06:02;;;;;;;10.32;6.10;;;20.90;99.90;;;;;;4922188;29;20195;-88
2023/07/28 09:08:30;;;;;;;10.82;6.50;;;20.90;99.90;;;;;;4953246;28;20266;-88
2023/07/28 09:11:04;;;;;;;8.70;5.80;;;20.90;99.90;;;;;;4913952;29;20198;-89
2023/07/28 09:13:41;;;;;;;7.85;5.38;;;20.90;99.90;;;;;;4935815;29;20183;-89
2023/07/28 09:16:17;;;;;;;5.88;4.80;;;20.90;99.90;;;;;;4922069;29;20691;-89
2023/07/28 09:18:47;;;;;;;6.07;4.82;;;21.00;99.90;;;;;;4936698;29;20655;-90
2023/07/28 09:21:22;;;;;;;5.25;4.20;;;21.00;99.90;;;;;;4917373;29;20277;-89
2023/07/28 09:23:48;;;;;;;4.32;3.92;;;21.00;99.90;;;;;;4932136;28;20192;-89
2023/07/28 09:26:15;;;;;;;5.68;4.38;;;21.00;99.90;;;;;;4916531;29;20187;-88
2023/07/28 09:28:41;;;;;;;5.90;4.15;;;21.10;99.90;;;;;;4930119;29;20183;-87
2023/07/28 09:31:09;;;;;;;6.82;4.10;;;21.10;99.90;;;;;;4932219;29;20184;-88
2023/07/28 09:33:36;;;;;;;6.22;4.20;;;21.20;99.90;;;;;;4912713;29;20271;-85
2023/07/28 09:36:25;;;;;;;4.50;3.88;;;21.30;99.90;;;;;;4940778;28;20727;-90
2023/07/28 09:38:55;;;;;;;4.95;3.88;;;21.40;99.90;;;;;;4900493;29;20322;-86
2023/07/28 09:41:29;;;;;;;4.93;4.25;;;21.60;99.90;;;;;;4935445;29;20187;-91
2023/07/28 09:43:54;;;;;;;5.47;3.75;;;21.60;99.90;;;;;;4931498;29;20232;-88
2023/07/28 09:46:22;;;;;;;5.40;4.30;;;21.90;99.90;;;;;;4909906;29;20241;-92
2023/07/28 09:48:50;;;;;;;6.10;4.43;;;22.00;99.90;;;;;;4932755;29;20192;-87
2023/07/28 09:51:24;;;;;;;3.85;3.42;;;22.20;99.90;;;;;;4934656;29;20255;-88
2023/07/28 09:53:55;;;;;;;4.28;3.35;;;22.30;99.90;;;;;;4921269;29;20200;-89
2023/07/28 09:56:28;;;;;;;3.58;3.00;;;22.50;99.90;;;;;;4932098;29;20203;-89
2023/07/28 09:58:55;;;;;;;5.53;3.00;;;22.60;99.90;;;;;;4916771;29;20204;-87
2023/07/28 10:01:23;;;;;;;3.13;2.63;;;22.70;99.90;;;;;;4929541;29;20780;-90
2023/07/28 10:03:49;;;;;;;5.63;3.25;;;22.80;99.90;;;;;;4933362;29;20294;-87
2023/07/28 10:06:16;;;;;;;6.32;3.60;;;22.90;99.90;;;;;;4934147;29;20198;-86
2023/07/28 10:08:43;;;;;;;5.53;3.08;;;22.90;99.90;;;;;;4931179;29;20192;-88
2023/07/28 10:11:13;;;;;;;4.15;3.10;;;22.90;99.90;;;;;;4927789;29;20196;-88
2023/07/28 10:13:44;;;;;;;4.18;3.03;;;22.90;99.90;;;;;;4925301;29;20252;-88
2023/07/28 10:16:10;;;;;;;4.85;3.55;;;22.90;99.90;;;;;;4934041;29;20239;-86
2023/07/28 10:18:37;;;;;;;6.10;3.70;;;22.90;99.90;;;;;;4928018;29;20262;-87
2023/07/28 10:21:15;;;;;;;4.95;3.40;;;23.00;99.90;;;;;;4934471;29;20191;-87
2023/07/28 10:23:41;;;;;;;4.53;3.30;;;23.10;99.90;;;;;;4930925;29;20187;-88
2023/07/28 10:26:09;;;;;;;7.28;3.47;;;23.20;99.90;;;;;;4934747;29;20662;-86
2023/07/28 10:28:43;;;;;;;5.47;2.95;;;23.30;99.90;;;;;;4934022;29;20480;-88
2023/07/28 10:31:10;;;;;;;4.45;3.30;;;23.30;99.90;;;;;;4911787;29;20187;-88
2023/07/28 10:33:41;;;;;;;6.65;3.83;;;23.40;99.90;;;;;;4930676;29;20188;-86
2023/07/28 10:36:22;;;;;;;5.88;3.55;;;23.40;99.90;;;;;;4933879;29;20214;-86
2023/07/28 10:39:07;;;;;;;6.20;3.85;;;23.40;99.90;;;;;;4932107;29;20252;-88
2023/07/28 10:41:36;;;;;;;5.15;4.10;;;23.50;99.90;;;;;;4924154;29;20212;-86
2023/07/28 10:44:03;;;;;;;6.35;3.88;;;23.60;99.90;;;;;;4934252;29;20649;-85
2023/07/28 10:46:29;;;;;;;4.85;3.00;;;23.70;99.90;;;;;;4915453;29;20720;-86
2023/07/28 10:48:55;;;;;;;4.60;2.83;;;23.80;99.90;;;;;;4942632;29;20652;-87
2023/07/28 10:51:24;;;;;;;3.40;2.67;;;23.90;99.90;;;;;;4923294;29;20250;-91
2023/07/28 10:53:55;;;;;;;3.08;2.70;;;24.00;99.90;;;;;;4935027;28;20247;-85
2023/07/28 10:56:22;;;;;;;4.28;2.53;;;24.10;99.90;;;;;;4928774;29;20298;-83
2023/07/28 10:58:56;;;;;;;4.15;2.42;;;24.10;99.90;;;;;;4927737;29;20202;-81
2023/07/28 11:01:24;;;;;;;4.63;2.55;;;24.20;99.90;;;;;;4925988;29;20235;-80
2023/07/28 11:03:51;;;;;;;2.50;2.28;;;24.20;99.90;;;;;;4916500;29;20191;-81
2023/07/28 11:06:16;;;;;;;4.50;2.70;;;24.20;99.90;;;;;;4918172;29;20188;-85
2023/07/28 11:08:42;;;;;;;4.43;2.42;;;24.20;99.90;;;;;;4908562;29;20195;-87
2023/07/28 11:11:10;;;;;;;4.45;2.45;;;24.20;99.90;;;;;;4927866;29;20196;-85
2023/07/28 11:13:36;;;;;;;3.00;2.30;;;24.20;99.90;;;;;;4935437;29;20257;-88
2023/07/28 11:16:02;;;;;;;2.67;2.20;;;24.10;99.90;;;;;;4916641;29;20183;-88
2023/07/28 11:18:28;;;;;;;2.83;2.13;;;24.20;99.90;;;;;;4919585;29;20215;-86
2023/07/28 11:20:54;;;;;;;3.80;2.13;;;24.20;99.90;;;;;;4934981;29;20191;-87
2023/07/28 11:23:20;;;;;;;3.05;2.00;;;24.30;99.90;;;;;;4932668;29;20206;-88
2023/07/28 11:25:47;;;;;;;4.13;2.03;;;24.30;99.90;;;;;;4918571;29;20280;-89
2023/07/28 11:28:13;;;;;;;3.60;1.92;;;24.30;99.90;;;;;;4932264;29;20191;-87
2023/07/28 11:30:41;;;;;;;3.45;2.90;;;24.30;99.90;;;;;;4919620;29;20207;-87
2023/07/28 11:33:11;;;;;;;3.72;2.30;;;24.40;99.90;;;;;;4915304;29;20263;-90
2023/07/28 11:35:39;;;;;;;3.10;2.00;;;24.50;99.90;;;;;;4919150;29;20191;-85
2023/07/28 11:38:05;;;;;;;2.90;2.05;;;24.60;99.90;;;;;;4936847;29;20219;-89
2023/07/28 11:40:33;;;;;;;2.75;1.90;;;24.70;99.90;;;;;;4931825;29;20192;-89
2023/07/28 11:42:59;;;;;;;4.53;2.17;;;24.80;99.90;;;;;;4931887;29;20190;-87
2023/07/28 11:45:26;;;;;;;3.42;1.85;;;24.80;99.90;;;;;;4920211;29;20196;-89
2023/07/28 11:48:00;;;;;;;4.00;1.92;;;25.00;99.90;;;;;;4937141;29;20254;-90
2023/07/28 11:50:36;;;;;;;5.20;1.75;;;25.00;99.90;;;;;;4924317;29;20183;-88
2023/07/28 11:53:02;;;;;;;4.15;1.58;;;25.20;99.90;;;;;;4913464;29;20183;-88
2023/07/28 11:55:29;;;;;;;4.32;1.98;;;25.20;99.90;;;;;;4960848;28;20194;-88
2023/07/28 11:57:55;;;;;;;5.05;1.98;;;25.20;99.90;;;;;;4946093;29;20203;-90
2023/07/28 12:00:35;;;;;;;5.40;2.10;;;25.30;99.90;;;;;;4950019;29;20215;-91
2023/07/28 12:03:04;;;;;;;4.43;2.00;;;25.20;99.90;;;;;;4963899;28;20238;-89
2023/07/28 12:05:31;;;;;;;3.22;1.88;;;25.20;99.90;;;;;;4952408;29;20541;-90
2023/07/28 12:08:01;;;;;;;3.88;2.00;;;25.30;99.90;;;;;;4939643;29;20191;-89
2023/07/28 12:10:31;;;;;;;3.05;1.80;;;25.40;99.90;;;;;;4947837;29;20263;-88
2023/07/28 12:13:04;;;;;;;2.40;1.48;;;25.50;99.90;;;;;;4933084;29;20189;-90
2023/07/28 12:15:31;;;;;;;5.38;1.92;;;25.50;99.90;;;;;;4948296;29;20205;-89
2023/07/28 12:18:16;;;;;;;3.35;1.70;;;25.60;99.90;;;;;;4936407;29;20333;-90
2023/07/28 12:20:47;;;;;;;3.20;1.73;;;25.70;99.90;;;;;;4931601;29;20274;-88
2023/07/28 12:23:21;;;;;;;3.80;1.65;;;25.70;99.90;;;;;;4949375;29;20195;-88
2023/07/28 12:25:48;;;;;;;3.55;1.60;;;25.70;99.90;;;;;;4954074;29;20179;-90
2023/07/28 12:28:14;;;;;;;2.42;1.52;;;25.80;99.90;;;;;;4947121;29;20208;-89
2023/07/28 12:30:40;;;;;;;4.85;1.60;;;25.80;99.90;;;;;;4946308;29;20187;-89
2023/07/28 12:33:06;;;;;;;2.28;1.60;;;25.90;99.90;;;;;;4955344;29;20202;-86
2023/07/28 12:35:36;;;;;;;1.60;1.50;;;26.00;99.90;;;;;;4955991;29;20224;-89
2023/07/28 12:38:04;;;;;;;2.17;1.60;;;26.00;99.90;;;;;;4950786;29;20298;-89